Willisville, Indiana
Current Conditions -  °F | °C
As of 6:35 PM on Friday 24 Oct 2014 (Local Time) from KDCY Reporting Station
Scattered Clouds Scattered Clouds  
Wind Chill: 13°   Ceiling: Unl
Heat Index: 13°   Visibility: 10mi
Dew Point: 12°   Wind: 3mph
Humidity: 96%   Direction: 200°SSW
Pressure: 30.03"   Gusts: NA
Location:  38.4723°N, 87.3105°W
Report Text: KDCY 242335Z AUTO 20003KT 10SM SCT041 SCT048 13/12 A3003 RMK AO2 T01260120
Loading
Personal Weather Stations






























Interactive Weather Map
Tropical Storm Tracking
New forecast layout! Learn more

10-Day Weather Forecast

Advertisements
Track Severe Weather on mobile